San Antonio, Colorado
Current Conditions -  °F | °C
As of 11:52 AM on Thursday 30 Oct 2014 (Local Time) from KALS Reporting Station
Clear Clear  
Wind Chill: 56°   Ceiling: Unl
Heat Index: 56°   Visibility: 10mi
Dew Point: 13°   Wind: 3mph
Humidity: 18%   Direction: NA
Pressure: 30.42"   Gusts: NA
Location:  37.1816°N, 106.262°W
Report Text: KALS 301752Z AUTO VRB03KT 10SM CLR 13/M11 A3042 RMK AO2 SLP273 T01331106 10133 21078 58004
Loading
Personal Weather Stations






























Interactive Weather Map
Tropical Storm Tracking
New forecast layout! Learn more

10-Day Weather Forecast

Advertisements
Track Severe Weather on mobile